WetterOnline ( https://www.wetteronline.ch )

Wetter aktuell Bremervörde

Aktuelles Wetter: Bremervörde (5m)

6-stündlich | Neueste Meldungen
Ortszeit Temperatur Wetter
Fr, 10.07. 2:00 12.6° C Sprühregen
Do, 09.07. 20:00 13.5° C leichter Regen
Do, 09.07. 14:00 12.8° C Sprühregen
Do, 09.07. 8:00 11.2° C Sprühregen
Do, 09.07. 2:00 9.9° C bedeckt
Mi, 08.07. 20:00 15.6° C bedeckt
Mi, 08.07. 14:00 15.0° C Sprühregen
Mi, 08.07. 8:00 11.7° C wolkig
Ortszeit Temperatur Wetter
Fr, 10.07. 2:30 12.6° C Sprühregen
Fr, 10.07. 2:20 12.6° C Sprühregen
Fr, 10.07. 2:10 12.6° C Sprühregen
Fr, 10.07. 2:00 12.6° C Sprühregen
Fr, 10.07. 1:50 12.6° C Sprühregen
Fr, 10.07. 1:40 12.6° C Sprühregen
Fr, 10.07. 1:30 12.6° C Sprühregen
Fr, 10.07. 1:00 12.6° C bedeckt
Fr, 10.07. 0:30 12.6° C Sprühregen
Fr, 10.07. 0:00 12.7° C bedeckt
Do, 09.07. 23:30 12.7° C bewölkt
Ortszeit Relative Feuchte Sichtweite
Fr, 10.07. 2:00 99% 3.5 km
Do, 09.07. 20:00 94% 28 km
Do, 09.07. 14:00 98% 4.3 km
Do, 09.07. 8:00 95% 17 km
Do, 09.07. 2:00 99% 21 km
Mi, 08.07. 20:00 73% 45 km
Mi, 08.07. 14:00 75% 40 km
Mi, 08.07. 8:00 92% 30 km
Ortszeit Relative Feuchte Sichtweite
Fr, 10.07. 2:30 99% 4.5 km
Fr, 10.07. 2:20 99% -
Fr, 10.07. 2:10 99% -
Fr, 10.07. 2:00 99% 3.5 km
Fr, 10.07. 1:50 99% -
Fr, 10.07. 1:40 99% -
Fr, 10.07. 1:30 99% 3.6 km
Fr, 10.07. 1:00 99% 10 km
Fr, 10.07. 0:30 98% 4.0 km
Fr, 10.07. 0:00 98% 19 km
Do, 09.07. 23:30 98% 15 km
Ortszeit Niederschlagsmenge Niederschlagsart
Fr, 10.07. 2:00 1 l/m2 in 6 Std. Regen
Do, 09.07. 20:00 13 l/m2 in 12 Std. Regen
Do, 09.07. 14:00 12 l/m2 in 6 Std. Regen
Do, 09.07. 8:00 2 l/m2 in 12 Std. Regen
Do, 09.07. 2:00 0.0 l/m2 in 6 Std. -
Mi, 08.07. 20:00 0.1 l/m2 in 12 Std. Regen
Mi, 08.07. 14:00 0.1 l/m2 in 6 Std. Regen
Mi, 08.07. 8:00 0.1 l/m2 in 12 Std. Regen
Ortszeit Niederschlagsmenge Niederschlagsart
Fr, 10.07. 2:30 0.3 l/m2 in 1 Std. -
Fr, 10.07. 2:20 keine Meldung -
Fr, 10.07. 2:10 keine Meldung -
Fr, 10.07. 2:00 0.2 l/m2 in 1 Std. Regen
Fr, 10.07. 1:50 keine Meldung -
Fr, 10.07. 1:40 keine Meldung -
Fr, 10.07. 1:30 0.1 l/m2 in 1 Std. -
Fr, 10.07. 1:00 0.1 l/m2 in 1 Std. Regen
Fr, 10.07. 0:30 0.1 l/m2 in 1 Std. -
Fr, 10.07. 0:00 0.1 l/m2 in 1 Std. Sprühregen
Do, 09.07. 23:30 0.1 l/m2 in 1 Std. Schnee
Ortszeit Stärke Spitze Richtung
km/h Bft. km/h Grad Sektor
Fr, 10.07. 2:00 7 2 14 90° O
Do, 09.07. 20:00 7 2 22 60° NO
Do, 09.07. 14:00 17 3 28 60° NO
Do, 09.07. 8:00 9 2 15 90° O
Do, 09.07. 2:00 0 0 14 - -
Mi, 08.07. 20:00 7 2 22 350° N
Mi, 08.07. 14:00 11 2 25 310° NW
Mi, 08.07. 8:00 7 2 14 250° W
Ortszeit Stärke Spitze Richtung
km/h Bft. km/h Grad Sektor
Fr, 10.07. 2:30 9 2 13 100° O
Fr, 10.07. 2:20 9 2 - 100° O
Fr, 10.07. 2:10 7 2 - 100° O
Fr, 10.07. 2:00 7 2 14 90° O
Fr, 10.07. 1:50 7 2 - 90° O
Fr, 10.07. 1:40 7 2 - 100° O
Fr, 10.07. 1:30 7 2 14 90° O
Fr, 10.07. 1:00 7 2 11 80° O
Fr, 10.07. 0:30 7 2 11 100° O
Fr, 10.07. 0:00 6 1 11 60° NO
Do, 09.07. 23:30 7 2 11 80° O
Ortszeit Untergrenze Bedeckung Gattung
total tief tief mittel hoch
Fr, 10.07. 2:00 120 m 8/8 8/8 - - -
Do, 09.07. 20:00 270 m 8/8 8/8 - - -
Do, 09.07. 14:00 180 m 8/8 8/8 - - -
Do, 09.07. 8:00 900 m 7/8 7/8 - - -
Do, 09.07. 2:00 4800 m 8/8 8/8 - - -
Mi, 08.07. 20:00 840 m 8/8 8/8 - - -
Mi, 08.07. 14:00 1350 m 8/8 8/8 - - -
Mi, 08.07. 8:00 1800 m 6/8 6/8 - - -
Ortszeit Bedeckungsgrad in Achtel und Wolkenuntergrenze
Fr, 10.07. 2:30 3(120m) 6(540m) 7(900m)
Fr, 10.07. 2:20 3(120m) 6(540m) 7(900m)
Fr, 10.07. 2:10 3(120m) 8(570m)
Fr, 10.07. 2:00 5(120m) 5(360m) 8(570m)
Fr, 10.07. 1:50 5(120m) 5(360m) 8(570m)
Fr, 10.07. 1:40 5(120m) 7(330m) 8(630m)
Fr, 10.07. 1:30 3(150m) 8(330m)
Fr, 10.07. 1:00 3(150m) 8(360m) 8(5400m)
Fr, 10.07. 0:30 8(390m) 8(5400m)
Fr, 10.07. 0:00 8(420m)
Do, 09.07. 23:30 7(390m)
Ortszeit Luftdruck NN (hPa) Tendenz (hPa in 3 Std.)
Fr, 10.07. 2:00 1011 - 1,0
Do, 09.07. 20:00 1012 0,0
Do, 09.07. 14:00 1011 - 0,9
Do, 09.07. 8:00 1014 - 0,8
Do, 09.07. 2:00 1016 - 0,6
Mi, 08.07. 20:00 1016 - 0,1
Mi, 08.07. 14:00 1016 + 0,8
Mi, 08.07. 8:00 1015 - 0,3
Ortszeit Luftdruck NN (hPa) Tendenz (hPa in 3 Std.)
Fr, 10.07. 2:30 1010 - 1,4
Fr, 10.07. 2:20 1010 keine Meldung
Fr, 10.07. 2:10 1010 keine Meldung
Fr, 10.07. 2:00 1011 - 1,0
Fr, 10.07. 1:50 1011 keine Meldung
Fr, 10.07. 1:40 1011 keine Meldung
Fr, 10.07. 1:30 1011 - 0,9
Fr, 10.07. 1:00 1011 - 0,6
Fr, 10.07. 0:30 1011 - 0,7
Fr, 10.07. 0:00 1012 - 0,1
Do, 09.07. 23:30 1012 - 0,2
Ortszeit Schneehöhe (cm)
Fr, 10.07. 2:00 -
Do, 09.07. 20:00 -
Do, 09.07. 14:00 -
Do, 09.07. 8:00 -
Do, 09.07. 2:00 -
Mi, 08.07. 20:00 -
Mi, 08.07. 14:00 -
Mi, 08.07. 8:00 -
Ortszeit Schneehöhe (cm)
Fr, 10.07. 2:30 -
Fr, 10.07. 2:20 -
Fr, 10.07. 2:10 -
Fr, 10.07. 2:00 -
Fr, 10.07. 1:50 -
Fr, 10.07. 1:40 -
Fr, 10.07. 1:30 -
Fr, 10.07. 1:00 -
Fr, 10.07. 0:30 -
Fr, 10.07. 0:00 -
Do, 09.07. 23:30 -
Link zu dieser Seite / Seite empfehlen

Das Wetter in ...